Saturday, May 27, 2017

  Over 48,494,314 pages visited!

GMT:
13:41
PACIFIC:
6:41:52 AM
MOUNTAIN:
7:41:52 AM

CENTRAL:
8:41:52 AM

EASTERN:
9:41:52 AM
ATLANTIC:
10:41:52 AM
NEWFOUNDLAND:
11:11:52 AM
 

 


Watches/Warnings
Current Conditions
Radar/Satellite
Lightning Images


Current Weather Conditions For TORONTO PEARSON,ON

 


A Few Clouds
 

Temperature: 16�C / 61�F
Dew Point: 12 �C / 54�F
Humidity: 77 %
Pressure: 1012.7 mbs (29.9 inches)
Visibility: 24.1 kms (15 SM)
Wind Direction: NNW (340�)
Wind Speed: 9.3 Km/h (5.8 MPH)
Max Wind Gust: No Gusts
Humidex: N/A
WindChill: N/A
    

Observation Information

Date/Time: Saturday, May 27, 2017 @ 13:00Z
Local Time:
Metar Coded: CYYZ 271300Z 34005KT 15SM FEW015 OVC055 16/12 A2990 RMK SF1SC8 SF TR SLP127 DENSITY ALT 700FT

 

 

                   1997-2017 The Ontario Weather Page